createdAt,value
2019-01-19T00:00:15.837Z,4.50
2019-01-19T00:01:15.857Z,24.70
2019-01-19T00:02:15.816Z,8.60
2019-01-19T00:03:15.818Z,9.30
2019-01-19T00:04:15.821Z,8.60
2019-01-19T00:05:15.787Z,16.60
2019-01-19T00:06:15.781Z,22.80
2019-01-19T00:07:15.785Z,8.80
2019-01-19T00:08:15.764Z,6.50
2019-01-19T00:09:15.743Z,27.40
2019-01-19T00:10:15.731Z,6.60
2019-01-19T00:11:15.728Z,7.90
2019-01-19T00:12:15.748Z,8.90
2019-01-19T00:13:15.722Z,9.50
2019-01-19T00:14:15.690Z,8.80
2019-01-19T00:15:15.691Z,6.00
2019-01-19T00:16:15.675Z,23.70
2019-01-19T00:17:15.668Z,8.30
2019-01-19T00:18:15.684Z,9.00
2019-01-19T00:19:15.647Z,6.10
2019-01-19T00:20:15.655Z,11.70
2019-01-19T00:21:15.614Z,7.00
2019-01-19T00:22:15.611Z,27.80
2019-01-19T00:23:15.600Z,27.90
2019-01-19T00:24:15.590Z,10.90
2019-01-19T00:25:15.606Z,9.20
2019-01-19T00:26:15.565Z,8.70
2019-01-19T00:27:15.555Z,7.10
2019-01-19T00:28:15.576Z,9.30
2019-01-19T00:29:15.533Z,23.00
2019-01-19T00:30:15.525Z,11.40
2019-01-19T00:31:15.502Z,21.00
2019-01-19T00:32:15.492Z,17.20
2019-01-19T00:33:15.483Z,9.10
2019-01-19T00:34:15.492Z,10.20
2019-01-19T00:35:18.050Z,31.70
2019-01-19T00:36:15.469Z,9.40
2019-01-19T00:37:15.443Z,16.10
2019-01-19T00:38:15.436Z,15.10
2019-01-19T00:39:15.438Z,15.00
2019-01-19T00:40:15.406Z,16.90
2019-01-19T00:41:15.396Z,9.70
2019-01-19T00:42:15.389Z,14.30
2019-01-19T00:43:15.380Z,11.20
2019-01-19T00:44:15.444Z,6.50
2019-01-19T00:45:15.364Z,10.30
2019-01-19T00:46:15.346Z,24.90
2019-01-19T00:47:15.343Z,4.10
2019-01-19T00:48:15.330Z,14.90
2019-01-19T00:49:15.317Z,7.80
2019-01-19T00:50:15.344Z,6.90
2019-01-19T00:51:15.292Z,33.80
2019-01-19T00:52:15.289Z,6.40
2019-01-19T00:53:15.268Z,7.60
2019-01-19T00:54:15.273Z,19.00
2019-01-19T00:55:15.258Z,9.70
2019-01-19T00:56:15.267Z,7.50
2019-01-19T00:57:15.247Z,8.60
2019-01-19T00:58:15.229Z,6.90
2019-01-19T00:59:15.207Z,19.60
2019-01-19T01:00:15.202Z,13.90
2019-01-19T01:01:15.218Z,9.20
2019-01-19T01:02:15.182Z,16.30
2019-01-19T01:03:15.166Z,26.10
2019-01-19T01:04:15.160Z,21.20
2019-01-19T01:05:15.145Z,18.50
2019-01-19T01:06:15.152Z,14.60
2019-01-19T01:07:15.127Z,5.50
2019-01-19T01:08:15.140Z,22.00
2019-01-19T01:09:15.161Z,17.30
2019-01-19T01:10:15.109Z,18.60
2019-01-19T01:11:15.217Z,13.60
2019-01-19T01:12:15.073Z,6.70
2019-01-19T01:13:15.152Z,11.90
2019-01-19T01:14:15.047Z,15.80
2019-01-19T01:15:15.072Z,23.00
2019-01-19T01:16:15.033Z,20.70
2019-01-19T01:17:15.125Z,6.80
2019-01-19T01:18:15.005Z,18.40
2019-01-19T01:19:23.994Z,2.30
2019-01-19T01:20:14.994Z,23.00
2019-01-19T01:21:14.974Z,26.50
2019-01-19T01:22:14.993Z,19.00
2019-01-19T01:23:14.991Z,12.80
2019-01-19T01:24:14.941Z,11.60
2019-01-19T01:25:14.933Z,8.90
2019-01-19T01:26:14.926Z,16.60
2019-01-19T01:27:14.937Z,9.20
2019-01-19T01:28:14.906Z,12.20
2019-01-19T01:29:14.936Z,17.90
2019-01-19T01:30:14.882Z,23.80
2019-01-19T01:31:14.878Z,11.50
2019-01-19T01:32:14.863Z,15.50
2019-01-19T01:33:14.880Z,12.00
2019-01-19T01:34:14.838Z,10.90
2019-01-19T01:35:14.840Z,11.50
2019-01-19T01:36:14.851Z,19.10
2019-01-19T01:37:14.809Z,4.40
2019-01-19T01:38:14.835Z,17.30
2019-01-19T01:39:15.504Z,20.40
2019-01-19T01:40:14.780Z,13.00
2019-01-19T01:41:14.761Z,7.80
2019-01-19T01:42:14.751Z,11.10
2019-01-19T01:43:14.760Z,6.90
2019-01-19T01:44:14.754Z,16.90
2019-01-19T01:45:14.723Z,15.70
2019-01-19T01:46:14.720Z,13.40
2019-01-19T01:47:14.708Z,9.90
2019-01-19T01:48:14.687Z,9.00
2019-01-19T01:49:14.718Z,3.00
2019-01-19T01:50:14.675Z,19.60
2019-01-19T01:51:14.659Z,16.70
2019-01-19T01:52:14.658Z,24.20
2019-01-19T01:53:14.635Z,17.50
2019-01-19T01:54:14.625Z,30.50
2019-01-19T01:55:14.654Z,10.20
2019-01-19T01:56:14.608Z,24.00
2019-01-19T01:57:14.597Z,22.40
2019-01-19T01:58:14.603Z,15.90
2019-01-19T01:59:14.577Z,34.40
2019-01-19T02:00:14.578Z,32.10
2019-01-19T02:01:14.590Z,10.70
2019-01-19T02:02:14.539Z,8.50
2019-01-19T02:03:14.534Z,21.90
2019-01-19T02:04:14.524Z,8.50
2019-01-19T02:05:14.515Z,21.80
2019-01-19T02:06:14.535Z,19.40
2019-01-19T02:07:14.525Z,11.50
2019-01-19T02:08:14.478Z,18.60
2019-01-19T02:09:14.472Z,6.20
2019-01-19T02:10:14.507Z,19.70
2019-01-19T02:11:14.456Z,19.50
2019-01-19T02:12:14.461Z,20.40
2019-01-19T02:13:14.422Z,20.20
2019-01-19T02:14:14.412Z,14.90
2019-01-19T02:15:14.411Z,22.40
2019-01-19T02:16:14.413Z,30.80
2019-01-19T02:17:14.415Z,20.70
2019-01-19T02:18:14.377Z,20.30
2019-01-19T02:19:14.424Z,29.10
2019-01-19T02:20:14.351Z,23.90
2019-01-19T02:21:14.345Z,20.60
2019-01-19T02:22:14.370Z,18.00
2019-01-19T02:23:14.324Z,23.80
2019-01-19T02:24:14.328Z,25.10
2019-01-19T02:25:14.302Z,10.30
2019-01-19T02:26:14.288Z,7.80
2019-01-19T02:27:14.276Z,25.40
2019-01-19T02:28:14.291Z,4.70
2019-01-19T02:29:14.256Z,7.10
2019-01-19T02:30:14.249Z,23.40
2019-01-19T02:31:14.237Z,27.60
2019-01-19T02:32:14.268Z,15.70
2019-01-19T02:33:14.240Z,35.10
2019-01-19T02:34:14.197Z,20.60
2019-01-19T02:35:14.193Z,6.00
2019-01-19T02:36:14.184Z,12.20
2019-01-19T02:37:14.169Z,11.70
2019-01-19T02:38:14.158Z,21.80
2019-01-19T02:39:14.175Z,31.20
2019-01-19T02:40:14.155Z,28.10
2019-01-19T02:41:14.146Z,18.00
2019-01-19T02:42:14.120Z,19.30
2019-01-19T02:43:14.116Z,16.10
2019-01-19T02:44:14.097Z,55.20
2019-01-19T02:45:14.118Z,48.40
2019-01-19T02:46:14.110Z,22.30
2019-01-19T02:47:14.080Z,30.00
2019-01-19T02:48:14.059Z,31.30
2019-01-19T02:49:14.048Z,42.20
2019-01-19T02:50:14.060Z,48.80
2019-01-19T02:51:14.037Z,44.90
2019-01-19T02:52:14.018Z,15.10
2019-01-19T02:53:13.999Z,41.20
2019-01-19T02:54:13.990Z,28.90
2019-01-19T02:55:14.011Z,32.50
2019-01-19T02:56:13.972Z,18.20
2019-01-19T02:57:13.969Z,13.90
2019-01-19T02:58:13.955Z,41.50
2019-01-19T02:59:13.988Z,21.70
2019-01-19T03:00:13.934Z,24.40
2019-01-19T03:01:13.942Z,36.20
2019-01-19T03:02:13.917Z,38.50
2019-01-19T03:03:13.905Z,16.60
2019-01-19T03:04:13.883Z,10.40
2019-01-19T03:05:13.893Z,27.70
2019-01-19T03:06:13.901Z,36.10
2019-01-19T03:07:13.851Z,30.20
2019-01-19T03:08:13.844Z,33.50
2019-01-19T03:09:13.842Z,28.60
2019-01-19T03:10:13.824Z,18.30
2019-01-19T03:11:13.815Z,9.40
2019-01-19T03:12:13.834Z,17.50
2019-01-19T03:13:13.789Z,13.70
2019-01-19T03:14:13.775Z,20.10
2019-01-19T03:15:13.812Z,31.00
2019-01-19T03:16:13.762Z,34.90
2019-01-19T03:17:13.795Z,31.20
2019-01-19T03:18:13.750Z,25.70
2019-01-19T03:19:13.734Z,8.10
2019-01-19T03:20:13.725Z,3.30
2019-01-19T03:21:13.704Z,28.50
2019-01-19T03:22:13.696Z,12.00
2019-01-19T03:23:13.713Z,42.10
2019-01-19T03:24:13.688Z,34.40
2019-01-19T03:25:13.662Z,36.00
2019-01-19T03:26:13.676Z,28.40
2019-01-19T03:27:13.686Z,27.60
2019-01-19T03:28:13.669Z,23.40
2019-01-19T03:29:13.633Z,7.10
2019-01-19T03:30:13.636Z,14.90
2019-01-19T03:31:13.620Z,13.50
2019-01-19T03:32:13.604Z,16.40
2019-01-19T03:33:13.614Z,25.30
2019-01-19T03:34:13.597Z,23.40
2019-01-19T03:35:13.590Z,33.40
2019-01-19T03:36:13.548Z,26.60
2019-01-19T03:37:13.542Z,26.20
2019-01-19T03:38:13.541Z,10.00
2019-01-19T03:39:13.554Z,19.80
2019-01-19T03:40:13.510Z,18.10
2019-01-19T03:41:13.506Z,15.20
2019-01-19T03:42:13.495Z,9.90
2019-01-19T03:43:13.486Z,21.50
2019-01-19T03:44:13.503Z,20.10
2019-01-19T03:45:13.451Z,9.50
2019-01-19T03:46:13.440Z,28.00
2019-01-19T03:47:13.431Z,35.10
2019-01-19T03:48:13.417Z,26.00
2019-01-19T03:49:13.421Z,12.70
2019-01-19T03:50:13.435Z,11.20
2019-01-19T03:51:13.398Z,25.00
2019-01-19T03:52:13.386Z,24.00
2019-01-19T03:53:13.366Z,8.50
2019-01-19T03:54:13.364Z,10.20
2019-01-19T03:55:13.385Z,9.30
2019-01-19T03:56:13.349Z,15.10
2019-01-19T03:57:13.339Z,16.60
2019-01-19T03:58:13.374Z,8.10
2019-01-19T03:59:13.361Z,13.20
2019-01-19T04:00:13.296Z,14.60
2019-01-19T04:01:13.326Z,16.50
2019-01-19T04:02:13.277Z,9.00
2019-01-19T04:03:13.266Z,8.40
2019-01-19T04:04:13.258Z,16.40
2019-01-19T04:05:13.309Z,8.60
2019-01-19T04:06:13.256Z,5.90
2019-01-19T04:07:13.246Z,16.30
2019-01-19T04:08:13.209Z,11.60
2019-01-19T04:09:13.208Z,9.30
2019-01-19T04:10:13.201Z,4.80
2019-01-19T04:11:13.222Z,20.50
2019-01-19T04:12:13.186Z,11.50
2019-01-19T04:13:13.204Z,29.60
2019-01-19T04:14:13.175Z,25.60
2019-01-19T04:15:13.147Z,16.10
2019-01-19T04:16:13.172Z,5.60
2019-01-19T04:17:13.159Z,7.60
2019-01-19T04:18:13.142Z,26.20
2019-01-19T04:19:13.095Z,38.40
2019-01-19T04:20:13.087Z,31.10
2019-01-19T04:21:13.085Z,35.00
2019-01-19T04:22:13.090Z,20.30
2019-01-19T04:23:13.060Z,41.20
2019-01-19T04:24:13.045Z,11.30
2019-01-19T04:25:13.039Z,21.80
2019-01-19T04:26:13.041Z,34.40
2019-01-19T04:27:13.057Z,32.70
2019-01-19T04:28:13.074Z,19.40
2019-01-19T04:29:12.992Z,34.90
2019-01-19T04:30:12.980Z,29.10
2019-01-19T04:31:12.971Z,41.90
2019-01-19T04:32:12.968Z,52.00
2019-01-19T04:33:12.986Z,52.10
2019-01-19T04:34:12.943Z,46.20
2019-01-19T04:35:12.933Z,46.40
2019-01-19T04:36:21.185Z,49.60
2019-01-19T04:37:13.946Z,38.70
2019-01-19T04:38:12.917Z,21.30
2019-01-19T04:39:12.885Z,30.50
2019-01-19T04:40:12.914Z,28.30
2019-01-19T04:41:12.873Z,33.70
2019-01-19T04:42:12.863Z,34.60
2019-01-19T04:43:12.842Z,30.00
2019-01-19T04:44:12.846Z,26.50
2019-01-19T04:45:12.823Z,24.20
2019-01-19T04:46:12.816Z,25.80
2019-01-19T04:47:12.805Z,31.90
2019-01-19T04:48:12.793Z,24.40
2019-01-19T04:49:12.795Z,23.20
2019-01-19T04:50:12.770Z,33.60
2019-01-19T04:51:12.751Z,34.70
2019-01-19T04:52:12.756Z,29.50
2019-01-19T04:53:12.739Z,45.90
2019-01-19T04:54:12.763Z,40.60
2019-01-19T04:55:12.725Z,15.30
2019-01-19T04:56:12.717Z,26.70
2019-01-19T04:57:12.725Z,12.70
2019-01-19T04:58:12.689Z,17.50
2019-01-19T04:59:12.675Z,21.50
2019-01-19T05:00:12.687Z,10.90
2019-01-19T05:01:12.659Z,18.90
2019-01-19T05:02:12.637Z,38.10
2019-01-19T05:03:12.638Z,27.30
2019-01-19T05:04:12.620Z,16.50
2019-01-19T05:05:12.662Z,38.00
2019-01-19T05:06:12.792Z,36.90
2019-01-19T05:07:12.594Z,16.50
2019-01-19T05:08:12.582Z,31.60
2019-01-19T05:09:12.567Z,27.60
2019-01-19T05:10:12.578Z,21.30
2019-01-19T05:11:12.566Z,8.90
2019-01-19T05:12:12.534Z,9.30
2019-01-19T05:13:12.553Z,22.90
2019-01-19T05:14:12.537Z,16.10
2019-01-19T05:15:12.501Z,35.30
2019-01-19T05:16:12.518Z,33.80
2019-01-19T05:17:12.484Z,25.30
2019-01-19T05:18:12.482Z,23.80
2019-01-19T05:19:12.464Z,28.10
2019-01-19T05:20:12.457Z,26.30
2019-01-19T05:21:12.484Z,22.00
2019-01-19T05:22:12.441Z,18.70
2019-01-19T05:23:12.415Z,16.50
2019-01-19T05:24:12.412Z,5.90
2019-01-19T05:25:12.427Z,7.40
2019-01-19T05:26:12.397Z,10.00
2019-01-19T05:27:12.410Z,7.90
2019-01-19T05:28:12.376Z,9.70
2019-01-19T05:29:12.352Z,24.50
2019-01-19T05:30:12.351Z,13.30
2019-01-19T05:31:12.344Z,21.90
2019-01-19T05:32:12.365Z,27.90
2019-01-19T05:33:12.313Z,40.60
2019-01-19T05:34:12.308Z,40.70
2019-01-19T05:35:12.294Z,44.30
2019-01-19T05:36:12.279Z,34.70
2019-01-19T05:37:12.275Z,12.60
2019-01-19T05:38:12.289Z,24.20
2019-01-19T05:39:12.255Z,31.40
2019-01-19T05:40:12.247Z,37.90
2019-01-19T05:41:12.234Z,36.90
2019-01-19T05:42:12.216Z,42.40
2019-01-19T05:43:12.243Z,28.90
2019-01-19T05:44:12.202Z,23.00
2019-01-19T05:45:12.210Z,25.40
2019-01-19T05:46:12.192Z,26.40
2019-01-19T05:47:12.170Z,27.40
2019-01-19T05:48:12.160Z,40.10
2019-01-19T05:49:12.175Z,38.60
2019-01-19T05:50:12.162Z,42.10
2019-01-19T05:51:12.146Z,13.00
2019-01-19T05:52:12.116Z,18.50
2019-01-19T05:53:12.119Z,22.20
2019-01-19T05:54:12.173Z,34.50
2019-01-19T05:55:12.079Z,37.10
2019-01-19T05:56:12.067Z,45.10
2019-01-19T05:57:12.070Z,36.80
2019-01-19T05:58:12.063Z,22.90
2019-01-19T05:59:12.073Z,38.30
2019-01-19T06:00:12.031Z,32.60
2019-01-19T06:01:12.045Z,35.90
2019-01-19T06:02:12.027Z,37.50
2019-01-19T06:03:11.997Z,37.20
2019-01-19T06:04:11.992Z,35.60
2019-01-19T06:05:12.078Z,39.80
2019-01-19T06:06:11.967Z,34.70
2019-01-19T06:07:11.969Z,40.00
2019-01-19T06:08:11.950Z,30.30
2019-01-19T06:09:11.939Z,41.70
2019-01-19T06:10:11.949Z,36.80
2019-01-19T06:11:11.934Z,31.10
2019-01-19T06:12:11.925Z,43.10
2019-01-19T06:13:11.897Z,26.40
2019-01-19T06:14:11.905Z,31.20
2019-01-19T06:15:11.880Z,44.30
2019-01-19T06:16:11.867Z,44.10
2019-01-19T06:17:11.921Z,45.10
2019-01-19T06:18:11.873Z,42.20
2019-01-19T06:19:11.828Z,37.60
2019-01-19T06:20:11.839Z,41.70
2019-01-19T06:21:11.807Z,40.80
2019-01-19T06:22:11.841Z,41.80
2019-01-19T06:23:11.787Z,41.90
2019-01-19T06:24:11.783Z,43.80
2019-01-19T06:25:11.758Z,46.80
2019-01-19T06:26:11.763Z,44.70
2019-01-19T06:27:11.792Z,31.20
2019-01-19T06:28:11.735Z,20.30
2019-01-19T06:29:11.729Z,15.50
2019-01-19T06:30:11.716Z,32.50
2019-01-19T06:31:11.700Z,34.70
2019-01-19T06:32:11.712Z,36.70
2019-01-19T06:33:11.672Z,29.80
2019-01-19T06:34:11.664Z,39.40
2019-01-19T06:35:11.664Z,49.50
2019-01-19T06:36:11.655Z,38.00
2019-01-19T06:37:11.662Z,38.50
2019-01-19T06:38:11.641Z,53.00
2019-01-19T06:39:11.611Z,51.60
2019-01-19T06:40:11.600Z,43.20
2019-01-19T06:41:11.613Z,29.40
2019-01-19T06:42:11.629Z,25.90
2019-01-19T06:43:11.583Z,32.90
2019-01-19T06:44:11.568Z,36.40
2019-01-19T06:45:11.570Z,33.40
2019-01-19T06:46:11.538Z,24.40
2019-01-19T06:47:11.529Z,30.50
2019-01-19T06:48:11.549Z,34.00
2019-01-19T06:49:11.515Z,31.10
2019-01-19T06:50:11.502Z,27.90
2019-01-19T06:51:11.484Z,18.20
2019-01-19T06:52:11.477Z,15.60
2019-01-19T06:53:11.518Z,9.10
2019-01-19T06:54:11.460Z,11.90
2019-01-19T06:55:11.453Z,19.30
2019-01-19T06:56:11.435Z,29.20
2019-01-19T06:57:11.426Z,14.90
2019-01-19T06:58:11.415Z,8.80
2019-01-19T06:59:17.310Z,31.40
2019-01-19T07:00:12.388Z,31.50
2019-01-19T07:01:11.425Z,15.90
2019-01-19T07:02:11.372Z,23.10
2019-01-19T07:03:11.381Z,10.00
2019-01-19T07:04:11.496Z,17.00
2019-01-19T07:05:11.345Z,9.30
2019-01-19T07:06:11.331Z,11.80
2019-01-19T07:07:11.356Z,13.70
2019-01-19T07:08:11.318Z,10.60
2019-01-19T07:09:11.295Z,13.60
2019-01-19T07:10:11.321Z,24.80
2019-01-19T07:11:11.279Z,24.70
2019-01-19T07:12:11.261Z,19.20
2019-01-19T07:13:11.257Z,27.20
2019-01-19T07:14:11.251Z,32.90
2019-01-19T07:15:11.275Z,18.20
2019-01-19T07:16:11.231Z,19.30
2019-01-19T07:17:11.207Z,19.20
2019-01-19T07:18:11.201Z,31.30
2019-01-19T07:19:11.188Z,14.30
2019-01-19T07:20:11.193Z,13.00
2019-01-19T07:21:11.195Z,12.10
2019-01-19T07:22:11.169Z,29.10
2019-01-19T07:23:11.197Z,6.00
2019-01-19T07:24:11.155Z,7.40
2019-01-19T07:25:11.135Z,6.00
2019-01-19T07:26:11.180Z,6.50
2019-01-19T07:27:11.108Z,13.20
2019-01-19T07:28:11.093Z,12.20
2019-01-19T07:29:11.080Z,12.90
2019-01-19T07:30:11.073Z,7.60
2019-01-19T07:31:11.058Z,17.50
2019-01-19T07:32:11.082Z,12.20
2019-01-19T07:33:11.042Z,8.50
2019-01-19T07:34:11.056Z,13.10
2019-01-19T07:35:11.029Z,23.60
2019-01-19T07:36:11.024Z,23.40
2019-01-19T07:37:10.997Z,28.70
2019-01-19T07:38:11.024Z,17.50
2019-01-19T07:39:10.993Z,28.90
2019-01-19T07:40:10.972Z,34.10
2019-01-19T07:41:10.969Z,31.70
2019-01-19T07:42:10.949Z,30.20
2019-01-19T07:43:10.945Z,37.50
2019-01-19T07:44:10.946Z,32.40
2019-01-19T07:45:10.957Z,35.60
2019-01-19T07:46:10.922Z,22.70
2019-01-19T07:47:10.908Z,32.70
2019-01-19T07:48:10.914Z,37.20
2019-01-19T07:49:10.913Z,12.80
2019-01-19T07:50:10.875Z,27.10
2019-01-19T07:51:11.554Z,23.80
2019-01-19T07:52:10.842Z,23.70
2019-01-19T07:53:10.848Z,20.80
2019-01-19T07:54:10.827Z,11.70
2019-01-19T07:55:10.828Z,21.20
2019-01-19T07:56:10.798Z,36.70
2019-01-19T07:57:10.790Z,25.00
2019-01-19T07:58:10.826Z,15.00
2019-01-19T07:59:10.777Z,21.20
2019-01-19T08:00:10.758Z,19.60
2019-01-19T08:01:10.740Z,10.10
2019-01-19T08:02:10.738Z,23.30
2019-01-19T08:03:10.725Z,28.20
2019-01-19T08:04:11.090Z,22.50
2019-01-19T08:05:11.149Z,9.80
2019-01-19T08:06:10.706Z,22.10
2019-01-19T08:07:17.113Z,9.60
2019-01-19T08:08:11.720Z,9.90
2019-01-19T08:09:10.692Z,44.10
2019-01-19T08:10:10.651Z,47.30
2019-01-19T08:11:11.403Z,18.30
2019-01-19T08:12:10.634Z,36.20
2019-01-19T08:13:10.652Z,40.00
2019-01-19T08:14:10.683Z,37.70
2019-01-19T08:15:10.599Z,38.10
2019-01-19T08:16:10.639Z,30.20
2019-01-19T08:17:10.586Z,15.30
2019-01-19T08:18:10.585Z,29.20
2019-01-19T08:19:10.560Z,23.70
2019-01-19T08:20:10.585Z,32.90
2019-01-19T08:21:10.548Z,45.70
2019-01-19T08:22:10.529Z,35.90
2019-01-19T08:23:10.515Z,32.70
2019-01-19T08:24:10.534Z,39.20
2019-01-19T08:25:10.500Z,33.60
2019-01-19T08:26:10.512Z,36.00
2019-01-19T08:27:10.470Z,34.10
2019-01-19T08:28:10.459Z,25.70
2019-01-19T08:29:10.479Z,18.90
2019-01-19T08:30:10.455Z,27.50
2019-01-19T08:31:10.491Z,25.60
2019-01-19T08:32:10.439Z,14.50
2019-01-19T08:33:10.412Z,8.40
2019-01-19T08:34:10.400Z,8.80
2019-01-19T08:35:10.385Z,10.40
2019-01-19T08:36:10.407Z,27.30
2019-01-19T08:37:10.388Z,25.20
2019-01-19T08:38:10.375Z,26.20
2019-01-19T08:39:10.382Z,11.80
2019-01-19T08:40:10.351Z,22.00
2019-01-19T08:41:10.321Z,21.40
2019-01-19T08:42:10.345Z,25.30
2019-01-19T08:43:10.308Z,23.30
2019-01-19T08:44:10.294Z,29.30
2019-01-19T08:45:10.321Z,31.40
2019-01-19T08:46:10.274Z,12.60
2019-01-19T08:47:10.283Z,5.70
2019-01-19T08:48:10.250Z,5.80
2019-01-19T08:49:10.267Z,6.10
2019-01-19T08:50:10.242Z,6.50
2019-01-19T08:51:10.223Z,6.10
2019-01-19T08:52:10.214Z,6.50
2019-01-19T08:53:10.195Z,6.50
2019-01-19T08:54:10.220Z,6.50
2019-01-19T08:55:10.168Z,6.90
2019-01-19T08:56:10.158Z,7.00
2019-01-19T08:57:10.159Z,7.50
2019-01-19T08:58:10.147Z,7.10
2019-01-19T08:59:10.127Z,6.70
2019-01-19T09:00:10.145Z,7.10
2019-01-19T09:01:10.111Z,6.80
2019-01-19T09:02:10.096Z,7.40
2019-01-19T09:03:10.091Z,7.80
2019-01-19T09:04:10.111Z,8.20
2019-01-19T09:05:10.061Z,8.10
2019-01-19T09:06:10.047Z,10.20
2019-01-19T09:07:10.037Z,9.80
2019-01-19T09:08:10.029Z,10.20
2019-01-19T09:09:10.030Z,12.30
2019-01-19T09:10:10.038Z,9.70
2019-01-19T09:11:10.003Z,8.60
2019-01-19T09:12:09.989Z,13.00
2019-01-19T09:13:09.978Z,11.00
2019-01-19T09:14:09.963Z,8.70
2019-01-19T09:15:09.979Z,8.20
2019-01-19T09:16:09.949Z,7.70
2019-01-19T09:17:09.930Z,8.00
2019-01-19T09:18:09.919Z,7.90
2019-01-19T09:19:09.913Z,6.60
2019-01-19T09:20:09.902Z,6.60
2019-01-19T09:21:09.913Z,6.60
2019-01-19T09:22:09.883Z,7.50
2019-01-19T09:23:09.873Z,7.30
2019-01-19T09:24:09.864Z,7.00
2019-01-19T09:25:09.845Z,6.80
2019-01-19T09:26:09.869Z,6.20
2019-01-19T09:27:09.829Z,6.80
2019-01-19T09:28:09.813Z,6.50
2019-01-19T09:29:09.810Z,7.10
2019-01-19T09:30:09.803Z,6.90
2019-01-19T09:31:09.780Z,6.90
2019-01-19T09:32:09.809Z,6.50
2019-01-19T09:33:09.768Z,7.20
2019-01-19T09:34:09.756Z,7.70
2019-01-19T09:35:09.747Z,7.10
2019-01-19T09:36:09.742Z,7.00
2019-01-19T09:37:09.738Z,7.30
2019-01-19T09:38:09.715Z,7.20
2019-01-19T09:39:09.696Z,6.90
2019-01-19T09:40:11.140Z,6.50
2019-01-19T09:41:09.678Z,7.90
2019-01-19T09:42:09.702Z,7.00
2019-01-19T09:43:09.658Z,6.70
2019-01-19T09:44:09.646Z,7.50
2019-01-19T09:45:09.632Z,7.60
2019-01-19T09:46:09.619Z,7.20
2019-01-19T09:47:09.617Z,7.10
2019-01-19T09:48:09.634Z,6.80
2019-01-19T09:49:09.593Z,7.20
2019-01-19T09:50:09.579Z,6.90
2019-01-19T09:51:09.569Z,7.30
2019-01-19T09:52:09.555Z,6.90
2019-01-19T09:53:09.556Z,7.50
2019-01-19T09:54:09.559Z,7.60
2019-01-19T09:55:09.529Z,7.10
2019-01-19T09:56:09.522Z,7.10
2019-01-19T09:57:09.513Z,7.20
2019-01-19T09:58:09.488Z,7.30
2019-01-19T09:59:09.513Z,7.00
2019-01-19T10:00:09.467Z,7.20
2019-01-19T10:01:09.469Z,7.70
2019-01-19T10:02:09.463Z,7.60
2019-01-19T10:03:09.437Z,7.60
2019-01-19T10:04:09.426Z,7.20
2019-01-19T10:05:09.607Z,7.10
2019-01-19T10:06:09.414Z,7.80
2019-01-19T10:07:09.405Z,7.20
2019-01-19T10:08:09.389Z,7.80
2019-01-19T10:09:09.378Z,8.00
2019-01-19T10:10:09.399Z,7.30
2019-01-19T10:11:09.356Z,7.50
2019-01-19T10:12:09.351Z,7.50
2019-01-19T10:13:09.351Z,8.00
2019-01-19T10:14:09.324Z,8.40
2019-01-19T10:15:09.313Z,7.00
2019-01-19T10:16:09.323Z,7.50
2019-01-19T10:17:09.286Z,7.80
2019-01-19T10:18:09.277Z,6.80
2019-01-19T10:19:09.273Z,7.40
2019-01-19T10:20:09.262Z,7.40
2019-01-19T10:21:09.273Z,7.40
2019-01-19T10:22:09.237Z,6.90
2019-01-19T10:23:09.228Z,7.00
2019-01-19T10:24:09.212Z,7.30
2019-01-19T10:25:09.213Z,7.90
2019-01-19T10:26:09.198Z,7.80
2019-01-19T10:27:09.206Z,7.30
2019-01-19T10:28:09.253Z,7.00
2019-01-19T10:29:09.163Z,7.60
2019-01-19T10:30:09.149Z,7.60
2019-01-19T10:31:09.136Z,7.10
2019-01-19T10:32:09.162Z,6.80
2019-01-19T10:33:09.132Z,6.80
2019-01-19T10:34:09.108Z,7.10
2019-01-19T10:35:09.093Z,6.90
2019-01-19T10:36:09.084Z,7.70
2019-01-19T10:37:09.081Z,6.70
2019-01-19T10:38:09.089Z,7.30
2019-01-19T10:39:09.085Z,6.80
2019-01-19T10:40:09.043Z,7.20
2019-01-19T10:41:09.029Z,7.30
2019-01-19T10:42:09.031Z,7.00
2019-01-19T10:43:09.015Z,7.00
2019-01-19T10:44:08.998Z,7.10
2019-01-19T10:45:09.012Z,6.80
2019-01-19T10:46:08.982Z,7.30
2019-01-19T10:47:08.977Z,6.20
2019-01-19T10:48:08.965Z,7.80
2019-01-19T10:49:08.976Z,7.40
2019-01-19T10:50:08.931Z,6.80
2019-01-19T10:51:08.926Z,7.70
2019-01-19T10:52:08.916Z,7.80
2019-01-19T10:53:08.925Z,7.80
2019-01-19T10:54:08.887Z,7.50
2019-01-19T10:55:08.916Z,7.70
2019-01-19T10:56:08.869Z,9.40
2019-01-19T10:57:08.862Z,8.40
2019-01-19T10:58:08.857Z,7.60
2019-01-19T10:59:08.841Z,7.00
2019-01-19T11:00:08.826Z,7.00
2019-01-19T11:01:08.835Z,7.00
2019-01-19T11:02:08.801Z,7.40
2019-01-19T11:03:08.792Z,7.10
2019-01-19T11:04:08.780Z,7.60
2019-01-19T11:05:08.811Z,7.40
2019-01-19T11:06:08.763Z,7.00
2019-01-19T11:07:08.749Z,7.30
2019-01-19T11:08:08.739Z,7.20
2019-01-19T11:09:08.734Z,7.50
2019-01-19T11:10:08.719Z,7.70
2019-01-19T11:11:08.751Z,7.60
2019-01-19T11:12:08.697Z,7.20
2019-01-19T11:13:08.689Z,6.80
2019-01-19T11:14:08.680Z,7.10
2019-01-19T11:15:08.674Z,7.60
2019-01-19T11:16:08.661Z,7.30
2019-01-19T11:17:08.673Z,6.90
2019-01-19T11:18:08.636Z,6.60
2019-01-19T11:19:08.620Z,7.00
2019-01-19T11:20:08.611Z,6.90
2019-01-19T11:21:08.610Z,7.50
2019-01-19T11:22:08.595Z,6.50
2019-01-19T11:23:08.598Z,7.00
2019-01-19T11:24:08.571Z,6.70
2019-01-19T11:25:08.560Z,7.20
2019-01-19T11:26:08.556Z,7.40
2019-01-19T11:27:08.542Z,7.20
2019-01-19T11:28:08.559Z,7.10
2019-01-19T11:29:08.515Z,6.80
2019-01-19T11:30:08.501Z,7.30
2019-01-19T11:31:08.495Z,7.10
2019-01-19T11:32:08.479Z,6.80
2019-01-19T11:33:08.500Z,7.20
2019-01-19T11:34:08.466Z,6.60
2019-01-19T11:35:08.458Z,6.60
2019-01-19T11:36:08.449Z,7.10
2019-01-19T11:37:08.430Z,6.80
2019-01-19T11:38:12.149Z,6.60
2019-01-19T11:39:08.416Z,7.90
2019-01-19T11:40:08.440Z,8.50
2019-01-19T11:41:08.387Z,7.80
2019-01-19T11:42:08.375Z,7.50
2019-01-19T11:43:08.368Z,6.90
2019-01-19T11:44:08.355Z,7.20
2019-01-19T11:45:08.350Z,7.00
2019-01-19T11:46:08.364Z,6.50
2019-01-19T11:47:08.326Z,6.80
2019-01-19T11:48:08.320Z,7.30
2019-01-19T11:49:08.305Z,8.20
2019-01-19T11:50:08.310Z,8.40
2019-01-19T11:51:08.280Z,7.00
2019-01-19T11:52:08.266Z,6.90
2019-01-19T11:53:08.271Z,7.20
2019-01-19T11:54:08.305Z,6.40
2019-01-19T11:55:08.265Z,6.60
2019-01-19T11:56:12.312Z,6.20
2019-01-19T11:57:08.220Z,7.40
2019-01-19T11:58:08.212Z,6.30
2019-01-19T11:59:08.199Z,6.90
2019-01-19T12:00:08.195Z,5.90
2019-01-19T12:01:08.196Z,7.00
2019-01-19T12:02:08.160Z,6.50
2019-01-19T12:03:08.150Z,6.20
2019-01-19T12:04:08.141Z,7.00
2019-01-19T12:05:08.135Z,10.50
2019-01-19T12:06:08.154Z,7.80
2019-01-19T12:07:18.437Z,6.60
2019-01-19T12:08:19.821Z,6.60
2019-01-19T12:09:16.697Z,6.50
2019-01-19T12:10:16.743Z,7.70
2019-01-19T12:11:16.145Z,7.00
2019-01-19T12:12:08.055Z,6.40
2019-01-19T12:13:08.041Z,6.50
2019-01-19T12:14:08.040Z,6.20
2019-01-19T12:15:09.220Z,6.00
2019-01-19T12:16:08.023Z,6.10
2019-01-19T12:17:08.031Z,6.20
2019-01-19T12:18:07.991Z,6.30
2019-01-19T12:19:07.986Z,5.90
2019-01-19T12:20:07.981Z,6.00
2019-01-19T12:21:07.963Z,6.50
2019-01-19T12:22:07.956Z,6.30
2019-01-19T12:23:07.969Z,5.80
2019-01-19T12:24:07.930Z,6.20
2019-01-19T12:25:07.937Z,6.20
2019-01-19T12:26:07.903Z,6.00
2019-01-19T12:27:07.900Z,5.70
2019-01-19T12:28:07.888Z,5.40
2019-01-19T12:29:07.908Z,6.40
2019-01-19T12:30:07.866Z,6.10
2019-01-19T12:31:07.850Z,6.10
2019-01-19T12:32:07.855Z,5.40
2019-01-19T12:33:07.842Z,5.60
2019-01-19T12:34:07.828Z,5.30
2019-01-19T12:35:07.845Z,6.00
2019-01-19T12:36:07.800Z,5.30
2019-01-19T12:37:07.794Z,5.50
2019-01-19T12:38:07.785Z,5.90
2019-01-19T12:39:07.799Z,5.90
2019-01-19T12:40:07.792Z,5.40
2019-01-19T12:41:07.749Z,5.60
2019-01-19T12:42:07.743Z,5.40
2019-01-19T12:43:07.724Z,5.50
2019-01-19T12:44:07.731Z,5.30
2019-01-19T12:45:07.705Z,5.70
2019-01-19T12:46:07.714Z,5.20
2019-01-19T12:47:07.687Z,5.60
2019-01-19T12:48:07.681Z,6.00
2019-01-19T12:49:07.661Z,6.20
2019-01-19T12:50:07.648Z,6.50
2019-01-19T12:51:07.685Z,6.70
2019-01-19T12:52:07.635Z,6.50
2019-01-19T12:53:07.621Z,9.00
2019-01-19T12:54:07.612Z,7.60
2019-01-19T12:55:07.608Z,6.60
2019-01-19T12:56:07.585Z,7.60
2019-01-19T12:57:07.594Z,8.70
2019-01-19T12:58:07.570Z,6.60
2019-01-19T12:59:07.557Z,5.90
2019-01-19T13:00:07.553Z,5.80
2019-01-19T13:01:07.538Z,5.90
2019-01-19T13:02:07.565Z,5.30
2019-01-19T13:03:07.509Z,5.40